SKSM/SMR METAR and TAF weather

Enter ICAO airport designator
Station Type Date Time Source
SKSM METAR 2020/11/24 19:00 UTC NOAA

SKSM 241900Z 27004KT 9999 FEW020 BKN200 34/26 A2977


Station Type Date Time Source
SKSM Decoded METAR 2020/11/24 19:00 UTC NOAA

Santa Marta / Simon Bolivar, Colombia (SKSM) 11-08N 074-14W 14M
Nov 24, 2020 - 02:00 PM EST / 2020.11.24 1900 UTC
Wind: from the W (270 degrees) at 5 MPH (4 KT):0
Visibility: greater than 7 mile(s):0
Sky conditions: mostly cloudy
Temperature: 93 F (34 C)
Heat index: 109.6 F (43.1 C):1
Dew Point: 78 F (26 C)
Relative Humidity: 63%
Pressure (altimeter): 29.77 in. Hg (1008 hPa)
ob: SKSM 241900Z 27004KT 9999 FEW020 BKN200 34/26 A2977
cycle: 19

Station Type Date Time Source
SKSM TAF UTC NOAA

Error!

Example: see airport list